sensor_id;sensor_type;location;lat;lon;timestamp;P1;durP1;ratioP1;P2;durP2;ratioP2
54929;SDS011;40833;53.238;6.576;2023-04-07T00:00:50;23.40;;;19.00;;
54929;SDS011;40833;53.238;6.576;2023-04-07T00:03:16;24.47;;;17.63;;
54929;SDS011;40833;53.238;6.576;2023-04-07T00:05:42;24.27;;;18.70;;
54929;SDS011;40833;53.238;6.576;2023-04-07T00:08:08;25.87;;;19.37;;
54929;SDS011;40833;53.238;6.576;2023-04-07T00:10:33;23.90;;;19.30;;
54929;SDS011;40833;53.238;6.576;2023-04-07T00:12:59;24.03;;;18.47;;
54929;SDS011;40833;53.238;6.576;2023-04-07T00:15:25;26.90;;;19.30;;
54929;SDS011;40833;53.238;6.576;2023-04-07T00:17:51;25.93;;;19.33;;
54929;SDS011;40833;53.238;6.576;2023-04-07T00:20:16;27.80;;;20.57;;
54929;SDS011;40833;53.238;6.576;2023-04-07T00:22:42;27.33;;;19.87;;
54929;SDS011;40833;53.238;6.576;2023-04-07T00:25:08;26.43;;;19.67;;
54929;SDS011;40833;53.238;6.576;2023-04-07T00:27:34;28.00;;;20.80;;
54929;SDS011;40833;53.238;6.576;2023-04-07T00:29:59;28.53;;;21.00;;
54929;SDS011;40833;53.238;6.576;2023-04-07T00:32:25;27.20;;;20.40;;
54929;SDS011;40833;53.238;6.576;2023-04-07T00:34:51;29.23;;;21.27;;
54929;SDS011;40833;53.238;6.576;2023-04-07T00:37:16;24.97;;;20.03;;
54929;SDS011;40833;53.238;6.576;2023-04-07T00:39:43;27.63;;;20.27;;
54929;SDS011;40833;53.238;6.576;2023-04-07T00:42:09;27.87;;;22.03;;
54929;SDS011;40833;53.238;6.576;2023-04-07T00:44:35;32.57;;;21.17;;
54929;SDS011;40833;53.238;6.576;2023-04-07T00:47:01;28.27;;;22.00;;
54929;SDS011;40833;53.238;6.576;2023-04-07T00:49:27;28.83;;;20.67;;
54929;SDS011;40833;53.238;6.576;2023-04-07T00:51:53;31.33;;;22.10;;
54929;SDS011;40833;53.238;6.576;2023-04-07T00:54:20;28.37;;;22.17;;
54929;SDS011;40833;53.238;6.576;2023-04-07T00:56:47;29.20;;;22.13;;
54929;SDS011;40833;53.238;6.576;2023-04-07T00:59:13;29.67;;;21.43;;
54929;SDS011;40833;53.238;6.576;2023-04-07T01:01:42;31.17;;;21.90;;
54929;SDS011;40833;53.238;6.576;2023-04-07T01:04:25;26.97;;;21.40;;
54929;SDS011;40833;53.238;6.576;2023-04-07T01:07:22;30.13;;;22.63;;
54929;SDS011;40833;53.238;6.576;2023-04-07T01:10:03;31.57;;;22.00;;
54929;SDS011;40833;53.238;6.576;2023-04-07T01:12:35;31.13;;;22.77;;
54929;SDS011;40833;53.238;6.576;2023-04-07T01:15:10;29.63;;;21.93;;
54929;SDS011;40833;53.238;6.576;2023-04-07T01:17:52;32.43;;;23.07;;
54929;SDS011;40833;53.238;6.576;2023-04-07T01:20:24;29.13;;;21.90;;
54929;SDS011;40833;53.238;6.576;2023-04-07T01:22:55;33.80;;;24.40;;
54929;SDS011;40833;53.238;6.576;2023-04-07T01:25:34;33.70;;;24.90;;
54929;SDS011;40833;53.238;6.576;2023-04-07T01:28:38;33.37;;;23.60;;
54929;SDS011;40833;53.238;6.576;2023-04-07T01:31:05;31.00;;;24.13;;
54929;SDS011;40833;53.238;6.576;2023-04-07T01:33:34;31.50;;;23.43;;
54929;SDS011;40833;53.238;6.576;2023-04-07T01:36:02;32.57;;;23.90;;
54929;SDS011;40833;53.238;6.576;2023-04-07T01:38:30;41.83;;;26.20;;
54929;SDS011;40833;53.238;6.576;2023-04-07T01:40:57;32.30;;;24.53;;
54929;SDS011;40833;53.238;6.576;2023-04-07T01:43:24;36.17;;;25.87;;
54929;SDS011;40833;53.238;6.576;2023-04-07T01:45:52;38.50;;;26.53;;
54929;SDS011;40833;53.238;6.576;2023-04-07T01:48:19;39.00;;;27.83;;
54929;SDS011;40833;53.238;6.576;2023-04-07T01:50:45;43.73;;;28.10;;
54929;SDS011;40833;53.238;6.576;2023-04-07T01:53:11;41.90;;;27.57;;
54929;SDS011;40833;53.238;6.576;2023-04-07T01:55:39;42.73;;;28.10;;
54929;SDS011;40833;53.238;6.576;2023-04-07T01:58:06;43.20;;;28.47;;
54929;SDS011;40833;53.238;6.576;2023-04-07T02:00:32;44.30;;;27.80;;
54929;SDS011;40833;53.238;6.576;2023-04-07T02:03:00;39.87;;;28.43;;
54929;SDS011;40833;53.238;6.576;2023-04-07T02:05:33;42.40;;;27.87;;
54929;SDS011;40833;53.238;6.576;2023-04-07T02:08:02;44.90;;;29.10;;
54929;SDS011;40833;53.238;6.576;2023-04-07T02:10:29;51.43;;;30.00;;
54929;SDS011;40833;53.238;6.576;2023-04-07T02:12:59;44.47;;;29.87;;
54929;SDS011;40833;53.238;6.576;2023-04-07T02:15:28;43.50;;;29.77;;
54929;SDS011;40833;53.238;6.576;2023-04-07T02:17:57;42.43;;;28.77;;
54929;SDS011;40833;53.238;6.576;2023-04-07T02:20:24;46.10;;;29.40;;
54929;SDS011;40833;53.238;6.576;2023-04-07T02:22:52;45.40;;;29.30;;
54929;SDS011;40833;53.238;6.576;2023-04-07T02:25:27;49.57;;;31.53;;
54929;SDS011;40833;53.238;6.576;2023-04-07T02:27:54;49.97;;;32.13;;
54929;SDS011;40833;53.238;6.576;2023-04-07T02:30:21;45.47;;;30.40;;
54929;SDS011;40833;53.238;6.576;2023-04-07T02:32:47;44.87;;;30.17;;
54929;SDS011;40833;53.238;6.576;2023-04-07T02:35:14;45.40;;;29.57;;
54929;SDS011;40833;53.238;6.576;2023-04-07T02:37:40;48.23;;;30.40;;
54929;SDS011;40833;53.238;6.576;2023-04-07T02:40:07;45.47;;;28.57;;
54929;SDS011;40833;53.238;6.576;2023-04-07T02:42:33;48.03;;;31.53;;
54929;SDS011;40833;53.238;6.576;2023-04-07T02:45:00;45.50;;;31.03;;
54929;SDS011;40833;53.238;6.576;2023-04-07T02:47:26;47.57;;;30.80;;
54929;SDS011;40833;53.238;6.576;2023-04-07T02:49:52;47.30;;;30.43;;
54929;SDS011;40833;53.238;6.576;2023-04-07T02:52:17;49.60;;;31.67;;
54929;SDS011;40833;53.238;6.576;2023-04-07T02:54:43;52.63;;;32.13;;
54929;SDS011;40833;53.238;6.576;2023-04-07T02:57:09;46.00;;;29.23;;
54929;SDS011;40833;53.238;6.576;2023-04-07T02:59:34;43.70;;;29.77;;
54929;SDS011;40833;53.238;6.576;2023-04-07T03:02:00;49.10;;;31.13;;
54929;SDS011;40833;53.238;6.576;2023-04-07T03:04:26;45.70;;;30.50;;
54929;SDS011;40833;53.238;6.576;2023-04-07T03:06:52;47.50;;;31.27;;
54929;SDS011;40833;53.238;6.576;2023-04-07T03:09:18;42.87;;;28.33;;
54929;SDS011;40833;53.238;6.576;2023-04-07T03:11:43;51.00;;;30.33;;
54929;SDS011;40833;53.238;6.576;2023-04-07T03:14:09;40.53;;;27.67;;
54929;SDS011;40833;53.238;6.576;2023-04-07T03:16:35;43.73;;;28.43;;
54929;SDS011;40833;53.238;6.576;2023-04-07T03:19:01;43.90;;;29.87;;
54929;SDS011;40833;53.238;6.576;2023-04-07T03:21:26;40.00;;;27.77;;
54929;SDS011;40833;53.238;6.576;2023-04-07T03:23:53;43.73;;;28.07;;
54929;SDS011;40833;53.238;6.576;2023-04-07T03:26:19;40.40;;;27.50;;
54929;SDS011;40833;53.238;6.576;2023-04-07T03:28:45;47.50;;;30.77;;
54929;SDS011;40833;53.238;6.576;2023-04-07T03:31:11;46.70;;;28.50;;
54929;SDS011;40833;53.238;6.576;2023-04-07T03:33:37;39.97;;;26.00;;
54929;SDS011;40833;53.238;6.576;2023-04-07T03:36:02;41.63;;;26.43;;
54929;SDS011;40833;53.238;6.576;2023-04-07T03:38:28;37.90;;;25.63;;
54929;SDS011;40833;53.238;6.576;2023-04-07T03:40:54;38.53;;;26.17;;
54929;SDS011;40833;53.238;6.576;2023-04-07T03:43:19;35.80;;;24.57;;
54929;SDS011;40833;53.238;6.576;2023-04-07T03:45:46;39.13;;;26.00;;
54929;SDS011;40833;53.238;6.576;2023-04-07T03:48:11;35.10;;;24.23;;
54929;SDS011;40833;53.238;6.576;2023-04-07T03:50:38;35.27;;;25.17;;
54929;SDS011;40833;53.238;6.576;2023-04-07T03:53:04;33.57;;;23.57;;
54929;SDS011;40833;53.238;6.576;2023-04-07T03:55:30;34.43;;;24.33;;
54929;SDS011;40833;53.238;6.576;2023-04-07T03:57:57;33.90;;;22.67;;
54929;SDS011;40833;53.238;6.576;2023-04-07T04:00:23;36.47;;;25.87;;
54929;SDS011;40833;53.238;6.576;2023-04-07T04:02:48;41.17;;;25.73;;
54929;SDS011;40833;53.238;6.576;2023-04-07T04:05:14;36.10;;;24.70;;
54929;SDS011;40833;53.238;6.576;2023-04-07T04:07:40;32.47;;;23.13;;
54929;SDS011;40833;53.238;6.576;2023-04-07T04:10:06;37.97;;;24.40;;
54929;SDS011;40833;53.238;6.576;2023-04-07T04:12:32;38.60;;;25.50;;
54929;SDS011;40833;53.238;6.576;2023-04-07T04:14:57;33.30;;;24.47;;
54929;SDS011;40833;53.238;6.576;2023-04-07T04:17:23;35.03;;;24.10;;
54929;SDS011;40833;53.238;6.576;2023-04-07T04:19:50;37.77;;;23.93;;
54929;SDS011;40833;53.238;6.576;2023-04-07T04:22:16;37.67;;;23.67;;
54929;SDS011;40833;53.238;6.576;2023-04-07T04:24:42;33.27;;;23.17;;
54929;SDS011;40833;53.238;6.576;2023-04-07T04:27:07;36.00;;;24.33;;
54929;SDS011;40833;53.238;6.576;2023-04-07T04:29:33;31.20;;;22.50;;
54929;SDS011;40833;53.238;6.576;2023-04-07T04:31:59;32.90;;;23.03;;
54929;SDS011;40833;53.238;6.576;2023-04-07T04:34:24;34.17;;;24.00;;
54929;SDS011;40833;53.238;6.576;2023-04-07T04:36:50;30.80;;;21.13;;
54929;SDS011;40833;53.238;6.576;2023-04-07T04:39:16;30.37;;;21.57;;
54929;SDS011;40833;53.238;6.576;2023-04-07T04:41:41;30.50;;;21.63;;
54929;SDS011;40833;53.238;6.576;2023-04-07T04:44:07;28.80;;;20.60;;
54929;SDS011;40833;53.238;6.576;2023-04-07T04:46:33;32.23;;;21.83;;
54929;SDS011;40833;53.238;6.576;2023-04-07T04:48:59;32.27;;;21.27;;
54929;SDS011;40833;53.238;6.576;2023-04-07T04:51:25;27.40;;;21.03;;
54929;SDS011;40833;53.238;6.576;2023-04-07T04:53:51;30.17;;;20.50;;
54929;SDS011;40833;53.238;6.576;2023-04-07T04:56:17;26.87;;;19.00;;
54929;SDS011;40833;53.238;6.576;2023-04-07T04:58:43;30.77;;;21.40;;
54929;SDS011;40833;53.238;6.576;2023-04-07T05:01:13;34.53;;;23.53;;
54929;SDS011;40833;53.238;6.576;2023-04-07T05:03:39;34.07;;;21.90;;
54929;SDS011;40833;53.238;6.576;2023-04-07T05:06:05;26.53;;;20.20;;
54929;SDS011;40833;53.238;6.576;2023-04-07T05:08:31;31.63;;;20.97;;
54929;SDS011;40833;53.238;6.576;2023-04-07T05:10:57;29.80;;;20.93;;
54929;SDS011;40833;53.238;6.576;2023-04-07T05:13:22;30.30;;;20.97;;
54929;SDS011;40833;53.238;6.576;2023-04-07T05:15:49;32.93;;;21.03;;
54929;SDS011;40833;53.238;6.576;2023-04-07T05:18:15;32.33;;;21.67;;
54929;SDS011;40833;53.238;6.576;2023-04-07T05:20:41;25.40;;;18.63;;
54929;SDS011;40833;53.238;6.576;2023-04-07T05:23:08;26.97;;;19.37;;
54929;SDS011;40833;53.238;6.576;2023-04-07T05:25:34;30.67;;;20.80;;
54929;SDS011;40833;53.238;6.576;2023-04-07T05:28:00;31.37;;;21.00;;
54929;SDS011;40833;53.238;6.576;2023-04-07T05:30:27;26.57;;;19.60;;
54929;SDS011;40833;53.238;6.576;2023-04-07T05:32:53;26.33;;;19.07;;
54929;SDS011;40833;53.238;6.576;2023-04-07T05:35:18;29.03;;;20.17;;
54929;SDS011;40833;53.238;6.576;2023-04-07T05:37:44;29.00;;;21.27;;
54929;SDS011;40833;53.238;6.576;2023-04-07T05:40:10;29.93;;;20.20;;
54929;SDS011;40833;53.238;6.576;2023-04-07T05:42:36;26.30;;;20.23;;
54929;SDS011;40833;53.238;6.576;2023-04-07T05:45:02;30.63;;;21.17;;
54929;SDS011;40833;53.238;6.576;2023-04-07T05:47:28;30.70;;;20.87;;
54929;SDS011;40833;53.238;6.576;2023-04-07T05:49:54;29.27;;;21.63;;
54929;SDS011;40833;53.238;6.576;2023-04-07T05:52:20;29.40;;;21.40;;
54929;SDS011;40833;53.238;6.576;2023-04-07T05:54:45;26.93;;;20.23;;
54929;SDS011;40833;53.238;6.576;2023-04-07T05:57:12;29.83;;;18.87;;
54929;SDS011;40833;53.238;6.576;2023-04-07T05:59:37;29.83;;;20.10;;
54929;SDS011;40833;53.238;6.576;2023-04-07T06:02:03;28.73;;;20.20;;
54929;SDS011;40833;53.238;6.576;2023-04-07T06:04:29;26.73;;;19.97;;
54929;SDS011;40833;53.238;6.576;2023-04-07T06:06:55;25.20;;;19.53;;
54929;SDS011;40833;53.238;6.576;2023-04-07T06:09:21;27.40;;;19.67;;
54929;SDS011;40833;53.238;6.576;2023-04-07T06:11:47;28.93;;;20.07;;
54929;SDS011;40833;53.238;6.576;2023-04-07T06:14:12;28.47;;;20.03;;
54929;SDS011;40833;53.238;6.576;2023-04-07T06:16:39;28.27;;;21.03;;
54929;SDS011;40833;53.238;6.576;2023-04-07T06:19:05;29.73;;;20.40;;
54929;SDS011;40833;53.238;6.576;2023-04-07T06:21:31;26.47;;;20.63;;
54929;SDS011;40833;53.238;6.576;2023-04-07T06:23:57;28.27;;;20.40;;
54929;SDS011;40833;53.238;6.576;2023-04-07T06:26:23;28.63;;;20.40;;
54929;SDS011;40833;53.238;6.576;2023-04-07T06:28:49;29.20;;;20.53;;
54929;SDS011;40833;53.238;6.576;2023-04-07T06:31:15;28.53;;;20.63;;
54929;SDS011;40833;53.238;6.576;2023-04-07T06:33:41;26.60;;;19.73;;
54929;SDS011;40833;53.238;6.576;2023-04-07T06:36:07;28.27;;;21.47;;
54929;SDS011;40833;53.238;6.576;2023-04-07T06:38:33;25.97;;;20.23;;
54929;SDS011;40833;53.238;6.576;2023-04-07T06:40:59;26.27;;;19.83;;
54929;SDS011;40833;53.238;6.576;2023-04-07T06:43:24;21.63;;;18.13;;
54929;SDS011;40833;53.238;6.576;2023-04-07T06:45:50;27.60;;;20.70;;
54929;SDS011;40833;53.238;6.576;2023-04-07T06:48:16;29.17;;;21.20;;
54929;SDS011;40833;53.238;6.576;2023-04-07T06:50:45;26.10;;;19.57;;
54929;SDS011;40833;53.238;6.576;2023-04-07T06:53:13;25.03;;;19.33;;
54929;SDS011;40833;53.238;6.576;2023-04-07T06:55:38;27.13;;;20.87;;
54929;SDS011;40833;53.238;6.576;2023-04-07T06:58:04;24.10;;;18.60;;
54929;SDS011;40833;53.238;6.576;2023-04-07T07:00:30;26.90;;;20.10;;
54929;SDS011;40833;53.238;6.576;2023-04-07T07:02:56;26.83;;;20.07;;
54929;SDS011;40833;53.238;6.576;2023-04-07T07:05:22;24.93;;;19.90;;
54929;SDS011;40833;53.238;6.576;2023-04-07T07:07:48;24.23;;;18.73;;
54929;SDS011;40833;53.238;6.576;2023-04-07T07:10:14;24.00;;;19.03;;
54929;SDS011;40833;53.238;6.576;2023-04-07T07:12:40;24.67;;;18.93;;
54929;SDS011;40833;53.238;6.576;2023-04-07T07:15:06;26.70;;;19.30;;
54929;SDS011;40833;53.238;6.576;2023-04-07T07:17:33;24.17;;;19.13;;
54929;SDS011;40833;53.238;6.576;2023-04-07T07:19:59;24.03;;;19.33;;
54929;SDS011;40833;53.238;6.576;2023-04-07T07:22:24;24.73;;;17.83;;
54929;SDS011;40833;53.238;6.576;2023-04-07T07:24:50;20.83;;;16.83;;
54929;SDS011;40833;53.238;6.576;2023-04-07T07:27:16;20.50;;;17.40;;
54929;SDS011;40833;53.238;6.576;2023-04-07T07:29:42;19.63;;;16.53;;
54929;SDS011;40833;53.238;6.576;2023-04-07T07:32:07;18.47;;;15.73;;
54929;SDS011;40833;53.238;6.576;2023-04-07T07:34:33;19.97;;;16.20;;
54929;SDS011;40833;53.238;6.576;2023-04-07T07:36:59;22.23;;;16.07;;
54929;SDS011;40833;53.238;6.576;2023-04-07T07:39:25;20.83;;;15.80;;
54929;SDS011;40833;53.238;6.576;2023-04-07T07:41:51;22.57;;;16.30;;
54929;SDS011;40833;53.238;6.576;2023-04-07T07:44:17;18.83;;;15.03;;
54929;SDS011;40833;53.238;6.576;2023-04-07T07:46:44;20.17;;;15.57;;
54929;SDS011;40833;53.238;6.576;2023-04-07T07:49:10;19.03;;;14.77;;
54929;SDS011;40833;53.238;6.576;2023-04-07T07:51:35;18.83;;;15.47;;
54929;SDS011;40833;53.238;6.576;2023-04-07T07:54:01;17.77;;;14.43;;
54929;SDS011;40833;53.238;6.576;2023-04-07T07:56:27;17.03;;;14.23;;
54929;SDS011;40833;53.238;6.576;2023-04-07T07:58:53;18.53;;;14.63;;
54929;SDS011;40833;53.238;6.576;2023-04-07T08:01:19;19.97;;;14.40;;
54929;SDS011;40833;53.238;6.576;2023-04-07T08:03:45;18.03;;;14.57;;
54929;SDS011;40833;53.238;6.576;2023-04-07T08:06:11;18.90;;;15.13;;
54929;SDS011;40833;53.238;6.576;2023-04-07T08:08:37;15.73;;;13.37;;
54929;SDS011;40833;53.238;6.576;2023-04-07T08:11:03;18.50;;;13.47;;
54929;SDS011;40833;53.238;6.576;2023-04-07T08:13:28;15.43;;;13.33;;
54929;SDS011;40833;53.238;6.576;2023-04-07T08:15:55;17.27;;;13.20;;
54929;SDS011;40833;53.238;6.576;2023-04-07T08:18:21;19.10;;;14.33;;
54929;SDS011;40833;53.238;6.576;2023-04-07T08:20:47;18.77;;;14.67;;
54929;SDS011;40833;53.238;6.576;2023-04-07T08:23:12;17.33;;;14.30;;
54929;SDS011;40833;53.238;6.576;2023-04-07T08:25:38;17.83;;;14.23;;
54929;SDS011;40833;53.238;6.576;2023-04-07T08:28:04;18.83;;;15.00;;
54929;SDS011;40833;53.238;6.576;2023-04-07T08:30:30;18.70;;;16.00;;
54929;SDS011;40833;53.238;6.576;2023-04-07T08:32:56;20.53;;;16.83;;
54929;SDS011;40833;53.238;6.576;2023-04-07T08:35:22;26.33;;;20.33;;
54929;SDS011;40833;53.238;6.576;2023-04-07T08:37:47;25.77;;;20.97;;
54929;SDS011;40833;53.238;6.576;2023-04-07T08:40:14;30.53;;;24.23;;
54929;SDS011;40833;53.238;6.576;2023-04-07T08:42:41;29.60;;;22.47;;
54929;SDS011;40833;53.238;6.576;2023-04-07T08:45:11;30.83;;;24.67;;
54929;SDS011;40833;53.238;6.576;2023-04-07T08:47:38;31.43;;;24.57;;
54929;SDS011;40833;53.238;6.576;2023-04-07T08:50:09;30.97;;;23.10;;
54929;SDS011;40833;53.238;6.576;2023-04-07T08:52:39;33.90;;;23.50;;
54929;SDS011;40833;53.238;6.576;2023-04-07T08:55:10;37.20;;;23.97;;
54929;SDS011;40833;53.238;6.576;2023-04-07T08:57:36;31.23;;;23.10;;
54929;SDS011;40833;53.238;6.576;2023-04-07T09:00:03;29.20;;;21.53;;
54929;SDS011;40833;53.238;6.576;2023-04-07T09:02:39;27.07;;;20.73;;
54929;SDS011;40833;53.238;6.576;2023-04-07T09:05:08;22.90;;;19.63;;
54929;SDS011;40833;53.238;6.576;2023-04-07T09:07:35;23.80;;;19.80;;
54929;SDS011;40833;53.238;6.576;2023-04-07T09:10:03;22.63;;;18.60;;
54929;SDS011;40833;53.238;6.576;2023-04-07T09:12:29;26.20;;;20.97;;
54929;SDS011;40833;53.238;6.576;2023-04-07T09:14:56;24.00;;;19.33;;
54929;SDS011;40833;53.238;6.576;2023-04-07T09:17:22;23.50;;;20.37;;
54929;SDS011;40833;53.238;6.576;2023-04-07T09:19:51;25.00;;;20.83;;
54929;SDS011;40833;53.238;6.576;2023-04-07T09:22:39;24.67;;;19.00;;
54929;SDS011;40833;53.238;6.576;2023-04-07T09:25:22;21.93;;;18.40;;
54929;SDS011;40833;53.238;6.576;2023-04-07T09:27:58;19.70;;;16.17;;
54929;SDS011;40833;53.238;6.576;2023-04-07T09:30:26;20.37;;;14.93;;
54929;SDS011;40833;53.238;6.576;2023-04-07T09:32:52;18.97;;;14.90;;
54929;SDS011;40833;53.238;6.576;2023-04-07T09:35:18;17.57;;;14.77;;
54929;SDS011;40833;53.238;6.576;2023-04-07T09:38:06;18.17;;;14.43;;
54929;SDS011;40833;53.238;6.576;2023-04-07T09:40:33;16.00;;;14.27;;
54929;SDS011;40833;53.238;6.576;2023-04-07T09:43:00;16.30;;;14.10;;
54929;SDS011;40833;53.238;6.576;2023-04-07T09:45:27;16.10;;;12.90;;
54929;SDS011;40833;53.238;6.576;2023-04-07T09:47:53;18.17;;;13.13;;
54929;SDS011;40833;53.238;6.576;2023-04-07T09:50:40;15.93;;;13.20;;
54929;SDS011;40833;53.238;6.576;2023-04-07T09:53:06;17.67;;;14.43;;
54929;SDS011;40833;53.238;6.576;2023-04-07T09:55:32;19.40;;;13.37;;
54929;SDS011;40833;53.238;6.576;2023-04-07T09:57:58;13.37;;;11.93;;
54929;SDS011;40833;53.238;6.576;2023-04-07T10:00:24;14.87;;;11.93;;
54929;SDS011;40833;53.238;6.576;2023-04-07T10:02:50;13.87;;;11.57;;
54929;SDS011;40833;53.238;6.576;2023-04-07T10:05:17;12.67;;;11.00;;
54929;SDS011;40833;53.238;6.576;2023-04-07T10:07:45;15.03;;;10.77;;
54929;SDS011;40833;53.238;6.576;2023-04-07T10:10:12;13.80;;;10.67;;
54929;SDS011;40833;53.238;6.576;2023-04-07T10:12:37;11.63;;;9.70;;
54929;SDS011;40833;53.238;6.576;2023-04-07T10:15:05;10.67;;;9.57;;
54929;SDS011;40833;53.238;6.576;2023-04-07T10:17:31;10.73;;;9.63;;
54929;SDS011;40833;53.238;6.576;2023-04-07T10:19:58;11.07;;;9.77;;
54929;SDS011;40833;53.238;6.576;2023-04-07T10:22:26;13.13;;;11.10;;
54929;SDS011;40833;53.238;6.576;2023-04-07T10:24:55;11.73;;;9.83;;
54929;SDS011;40833;53.238;6.576;2023-04-07T10:27:21;12.23;;;10.43;;
54929;SDS011;40833;53.238;6.576;2023-04-07T10:32:21;11.77;;;10.00;;
54929;SDS011;40833;53.238;6.576;2023-04-07T10:37:19;11.83;;;10.63;;
54929;SDS011;40833;53.238;6.576;2023-04-07T10:42:43;12.27;;;10.70;;
54929;SDS011;40833;53.238;6.576;2023-04-07T10:45:10;12.10;;;10.77;;
54929;SDS011;40833;53.238;6.576;2023-04-07T10:50:27;13.57;;;10.80;;
54929;SDS011;40833;53.238;6.576;2023-04-07T10:53:12;10.93;;;9.70;;
54929;SDS011;40833;53.238;6.576;2023-04-07T10:55:41;11.10;;;9.03;;
54929;SDS011;40833;53.238;6.576;2023-04-07T11:03:39;11.47;;;8.93;;
54929;SDS011;40833;53.238;6.576;2023-04-07T11:06:11;8.90;;;7.93;;
54929;SDS011;40833;53.238;6.576;2023-04-07T11:08:38;9.37;;;8.40;;
54929;SDS011;40833;53.238;6.576;2023-04-07T11:11:09;9.93;;;8.93;;
54929;SDS011;40833;53.238;6.576;2023-04-07T11:13:40;8.20;;;7.40;;
54929;SDS011;40833;53.238;6.576;2023-04-07T11:16:12;8.53;;;7.63;;
54929;SDS011;40833;53.238;6.576;2023-04-07T11:18:39;8.70;;;7.67;;
54929;SDS011;40833;53.238;6.576;2023-04-07T11:21:06;9.00;;;8.17;;
54929;SDS011;40833;53.238;6.576;2023-04-07T11:23:42;9.20;;;8.23;;
54929;SDS011;40833;53.238;6.576;2023-04-07T11:26:11;8.17;;;7.37;;
54929;SDS011;40833;53.238;6.576;2023-04-07T11:28:44;8.27;;;7.47;;
54929;SDS011;40833;53.238;6.576;2023-04-07T11:31:21;9.10;;;7.33;;
54929;SDS011;40833;53.238;6.576;2023-04-07T11:33:53;6.90;;;6.30;;
54929;SDS011;40833;53.238;6.576;2023-04-07T11:36:28;6.90;;;5.57;;
54929;SDS011;40833;53.238;6.576;2023-04-07T11:38:56;7.00;;;6.30;;
54929;SDS011;40833;53.238;6.576;2023-04-07T11:41:22;6.47;;;5.87;;
54929;SDS011;40833;53.238;6.576;2023-04-07T11:44:07;8.43;;;6.53;;
54929;SDS011;40833;53.238;6.576;2023-04-07T11:46:51;8.00;;;6.80;;
54929;SDS011;40833;53.238;6.576;2023-04-07T11:49:18;7.10;;;6.40;;
54929;SDS011;40833;53.238;6.576;2023-04-07T11:51:44;6.60;;;5.97;;
54929;SDS011;40833;53.238;6.576;2023-04-07T11:54:11;7.40;;;6.70;;
54929;SDS011;40833;53.238;6.576;2023-04-07T11:56:45;6.40;;;5.80;;
54929;SDS011;40833;53.238;6.576;2023-04-07T11:59:21;6.60;;;6.00;;
54929;SDS011;40833;53.238;6.576;2023-04-07T12:01:48;7.83;;;6.03;;
54929;SDS011;40833;53.238;6.576;2023-04-07T12:04:15;6.70;;;6.10;;
54929;SDS011;40833;53.238;6.576;2023-04-07T12:06:42;6.90;;;6.37;;
54929;SDS011;40833;53.238;6.576;2023-04-07T12:11:56;7.93;;;6.23;;
54929;SDS011;40833;53.238;6.576;2023-04-07T12:14:23;7.70;;;7.00;;
54929;SDS011;40833;53.238;6.576;2023-04-07T12:16:49;9.10;;;7.03;;
54929;SDS011;40833;53.238;6.576;2023-04-07T12:19:17;6.50;;;6.00;;
54929;SDS011;40833;53.238;6.576;2023-04-07T12:21:43;6.93;;;6.37;;
54929;SDS011;40833;53.238;6.576;2023-04-07T12:24:08;6.67;;;6.07;;
54929;SDS011;40833;53.238;6.576;2023-04-07T12:26:34;6.83;;;6.13;;
54929;SDS011;40833;53.238;6.576;2023-04-07T12:29:00;7.70;;;6.90;;
54929;SDS011;40833;53.238;6.576;2023-04-07T12:31:30;8.83;;;6.57;;
54929;SDS011;40833;53.238;6.576;2023-04-07T12:33:56;6.77;;;6.13;;
54929;SDS011;40833;53.238;6.576;2023-04-07T12:36:23;7.83;;;6.93;;
54929;SDS011;40833;53.238;6.576;2023-04-07T12:38:50;7.63;;;6.93;;
54929;SDS011;40833;53.238;6.576;2023-04-07T12:41:15;9.57;;;6.43;;
54929;SDS011;40833;53.238;6.576;2023-04-07T12:43:41;6.83;;;6.33;;
54929;SDS011;40833;53.238;6.576;2023-04-07T12:46:07;10.43;;;6.63;;
54929;SDS011;40833;53.238;6.576;2023-04-07T12:48:32;7.53;;;6.83;;
54929;SDS011;40833;53.238;6.576;2023-04-07T12:50:58;7.23;;;6.50;;
54929;SDS011;40833;53.238;6.576;2023-04-07T12:53:25;7.20;;;6.50;;
54929;SDS011;40833;53.238;6.576;2023-04-07T12:55:51;7.87;;;7.17;;
54929;SDS011;40833;53.238;6.576;2023-04-07T12:58:17;7.40;;;6.70;;
54929;SDS011;40833;53.238;6.576;2023-04-07T13:00:43;7.00;;;6.30;;
54929;SDS011;40833;53.238;6.576;2023-04-07T13:03:10;7.63;;;6.83;;
54929;SDS011;40833;53.238;6.576;2023-04-07T13:05:36;7.90;;;7.07;;
54929;SDS011;40833;53.238;6.576;2023-04-07T13:08:02;6.83;;;6.23;;
54929;SDS011;40833;53.238;6.576;2023-04-07T13:10:28;9.67;;;6.77;;
54929;SDS011;40833;53.238;6.576;2023-04-07T13:12:54;7.10;;;6.40;;
54929;SDS011;40833;53.238;6.576;2023-04-07T13:15:20;8.93;;;7.00;;
54929;SDS011;40833;53.238;6.576;2023-04-07T13:17:45;7.87;;;7.17;;
54929;SDS011;40833;53.238;6.576;2023-04-07T13:20:11;7.87;;;7.07;;
54929;SDS011;40833;53.238;6.576;2023-04-07T13:22:37;8.70;;;6.70;;
54929;SDS011;40833;53.238;6.576;2023-04-07T13:25:03;7.67;;;6.87;;
54929;SDS011;40833;53.238;6.576;2023-04-07T13:27:29;8.00;;;7.20;;
54929;SDS011;40833;53.238;6.576;2023-04-07T13:29:55;10.67;;;6.80;;
54929;SDS011;40833;53.238;6.576;2023-04-07T13:32:21;7.40;;;6.70;;
54929;SDS011;40833;53.238;6.576;2023-04-07T13:34:47;7.27;;;6.60;;
54929;SDS011;40833;53.238;6.576;2023-04-07T13:37:13;7.20;;;6.50;;
54929;SDS011;40833;53.238;6.576;2023-04-07T13:39:38;7.50;;;6.80;;
54929;SDS011;40833;53.238;6.576;2023-04-07T13:42:04;9.23;;;6.80;;
54929;SDS011;40833;53.238;6.576;2023-04-07T13:44:31;7.40;;;6.60;;
54929;SDS011;40833;53.238;6.576;2023-04-07T13:46:58;7.90;;;7.20;;
54929;SDS011;40833;53.238;6.576;2023-04-07T13:49:24;7.40;;;6.70;;
54929;SDS011;40833;53.238;6.576;2023-04-07T13:51:50;7.47;;;6.50;;
54929;SDS011;40833;53.238;6.576;2023-04-07T13:54:16;7.43;;;6.50;;
54929;SDS011;40833;53.238;6.576;2023-04-07T13:56:42;8.27;;;6.57;;
54929;SDS011;40833;53.238;6.576;2023-04-07T13:59:08;11.33;;;6.70;;
54929;SDS011;40833;53.238;6.576;2023-04-07T14:01:34;7.30;;;6.70;;
54929;SDS011;40833;53.238;6.576;2023-04-07T14:04:00;6.97;;;6.27;;
54929;SDS011;40833;53.238;6.576;2023-04-07T14:06:27;6.87;;;6.17;;
54929;SDS011;40833;53.238;6.576;2023-04-07T14:08:53;7.23;;;6.63;;
54929;SDS011;40833;53.238;6.576;2023-04-07T14:11:19;7.13;;;6.53;;
54929;SDS011;40833;53.238;6.576;2023-04-07T14:13:48;7.30;;;6.70;;
54929;SDS011;40833;53.238;6.576;2023-04-07T14:16:15;7.10;;;6.40;;
54929;SDS011;40833;53.238;6.576;2023-04-07T14:18:41;9.27;;;7.60;;
54929;SDS011;40833;53.238;6.576;2023-04-07T14:21:07;10.17;;;6.77;;
54929;SDS011;40833;53.238;6.576;2023-04-07T14:23:34;7.37;;;6.70;;
54929;SDS011;40833;53.238;6.576;2023-04-07T14:25:59;8.23;;;6.30;;
54929;SDS011;40833;53.238;6.576;2023-04-07T14:28:26;6.80;;;6.20;;
54929;SDS011;40833;53.238;6.576;2023-04-07T14:30:52;7.40;;;6.73;;
54929;SDS011;40833;53.238;6.576;2023-04-07T14:33:22;6.67;;;6.07;;
54929;SDS011;40833;53.238;6.576;2023-04-07T14:35:47;7.47;;;6.40;;
54929;SDS011;40833;53.238;6.576;2023-04-07T14:38:13;6.63;;;6.13;;
54929;SDS011;40833;53.238;6.576;2023-04-07T14:40:39;7.27;;;6.53;;
54929;SDS011;40833;53.238;6.576;2023-04-07T14:43:05;7.17;;;6.47;;
54929;SDS011;40833;53.238;6.576;2023-04-07T14:45:32;6.77;;;6.17;;
54929;SDS011;40833;53.238;6.576;2023-04-07T14:47:58;7.17;;;6.20;;